New Century — V7GF8 — position and weather

sailwx.info

Track history (hours):
 
Tides and Currents Weather Stations Pressure Air Temp Water Temp Dewpoint Dewpoint Depression Visibility Wind Speed Wind Dir Waves Ship Positions

New Century

Last reported at 2016-Jun-24 11:09 UTC. Time now 2016-Jun-25 19:40 UTC.
Position N 40°26' W 073°45'.

Length 228 m; draft 8.3 m.

Type: Tanker. MMSI: 538002085.

Date/timePositionNaut miles runAvg speedWind from/ knotsBaromVisibWave heightAir tempDewpointWater temp
2016-Jun-24 11:09N 40°26' W 073°45'8 9.1
2016-Jun-24 10:15N 40°27' W 073°56'7 9.1
2016-Jun-24 09:32N 40°29' W 074°04'  
2016-Jun-21 13:33N 40°37' W 074°12'5 4.7
2016-Jun-21 12:33N 40°39' W 074°07'2 2.5
2016-Jun-21 11:33N 40°38' W 074°04'0 0.1
2016-Jun-21 10:33N 40°38' W 074°04'0 0.2
2016-Jun-21 09:24N 40°38' W 074°04'1 0.9
2016-Jun-21 08:33N 40°38' W 074°04'2 2.2
2016-Jun-21 07:26N 40°39' W 074°07'0 0.0
2016-Jun-21 04:32N 40°39' W 074°07'0 0.0
2016-Jun-21 03:32N 40°39' W 074°07'0 0.0
2016-Jun-21 02:29N 40°39' W 074°07'0 0.0
2016-Jun-21 01:32N 40°39' W 074°07'0 0.0
2016-Jun-21 00:29N 40°39' W 074°07'0 0.0
2016-Jun-20 23:32N 40°39' W 074°07'0 0.0
2016-Jun-20 22:32N 40°39' W 074°07'0 0.0
2016-Jun-20 21:32N 40°39' W 074°07'0 0.0
2016-Jun-20 20:32N 40°39' W 074°07'0 0.0
2016-Jun-20 19:32N 40°39' W 074°07'0 0.0
2016-Jun-20 18:32N 40°39' W 074°07'0 0.0
2016-Jun-20 17:29N 40°39' W 074°07'0 0.0
2016-Jun-20 16:32N 40°39' W 074°07'0 0.0
2016-Jun-20 15:32N 40°39' W 074°07'0 0.0
2016-Jun-20 14:32N 40°39' W 074°07'0 0.0
2016-Jun-20 13:29N 40°39' W 074°07'0 0.0
2016-Jun-20 12:32N 40°39' W 074°07'0 0.0
2016-Jun-20 11:32N 40°39' W 074°07'0 0.0
2016-Jun-20 10:32N 40°39' W 074°07'0 0.0
2016-Jun-20 09:29N 40°39' W 074°07'0 0.0
2016-Jun-20 08:32N 40°39' W 074°07'0 0.0
2016-Jun-20 07:32N 40°39' W 074°07'0 0.0
2016-Jun-20 06:32N 40°39' W 074°07'0 0.0
2016-Jun-20 05:31N 40°39' W 074°07'0 0.0
2016-Jun-20 04:31N 40°39' W 074°07'0 0.0
2016-Jun-20 03:31N 40°39' W 074°07'0 0.0
2016-Jun-20 02:31N 40°39' W 074°07'0 0.0
2016-Jun-20 01:22N 40°39' W 074°07'0 0.0
2016-Jun-20 00:31N 40°39' W 074°07'0 0.4
2016-Jun-19 23:33N 40°39' W 074°06'5 4.7
2016-Jun-19 22:33N 40°35' W 074°02'17 6.8
2016-Jun-19 20:07N 40°30' W 073°42'2 0.1
2016-Jun-19 06:32N 40°30' W 073°40'0 0.1
2016-Jun-19 04:32N 40°30' W 073°40'0 0.0
2016-Jun-18 23:28N 40°30' W 073°40'0 0.0
2016-Jun-18 20:28N 40°30' W 073°40'0 0.0
2016-Jun-18 12:25N 40°30' W 073°40'0 0.1
2016-Jun-18 11:28N 40°30' W 073°40'0 0.1
2016-Jun-18 09:31N 40°30' W 073°40'0 0.1
2016-Jun-18 08:04N 40°30' W 073°40'0 0.1
2016-Jun-18 06:19N 40°30' W 073°40'0 0.0
2016-Jun-18 05:31N 40°30' W 073°40'0 0.0
2016-Jun-18 00:16N 40°30' W 073°40'0 0.1
2016-Jun-17 23:10N 40°30' W 073°40'0 0.1
2016-Jun-17 22:28N 40°30' W 073°40'0 0.0
2016-Jun-17 10:30N 40°30' W 073°40'0 0.0
2016-Jun-17 09:24N 40°30' W 073°40'0 0.0
2016-Jun-17 08:33N 40°30' W 073°40'0 0.0
2016-Jun-17 07:33N 40°30' W 073°40'0 0.0
2016-Jun-17 06:33N 40°30' W 073°40'0 0.0
2016-Jun-17 05:30N 40°30' W 073°40'0 0.1
2016-Jun-17 04:30N 40°30' W 073°40'  
Track history (hours):
 
Tides and Currents Weather Stations Pressure Air Temp Water Temp Dewpoint Dewpoint Depression Visibility Wind Speed Wind Dir Waves Ship Positions

New Century

Last reported at 2016-Jun-24 11:09 UTC. Time now 2016-Jun-25 19:40 UTC.
Position N 40°26' W 073°45'.

Length 228 m; draft 8.3 m.

Type: Tanker. MMSI: 538002085.

Date/timePositionNaut miles runAvg speedWind from/ knotsBaromVisibWave heightAir tempDewpointWater temp
2016-Jun-24 11:09N 40°26' W 073°45'8 9.1
2016-Jun-24 10:15N 40°27' W 073°56'7 9.1
2016-Jun-24 09:32N 40°29' W 074°04'  
2016-Jun-21 13:33N 40°37' W 074°12'5 4.7
2016-Jun-21 12:33N 40°39' W 074°07'2 2.5
2016-Jun-21 11:33N 40°38' W 074°04'0 0.1
2016-Jun-21 10:33N 40°38' W 074°04'0 0.2
2016-Jun-21 09:24N 40°38' W 074°04'1 0.9
2016-Jun-21 08:33N 40°38' W 074°04'2 2.2
2016-Jun-21 07:26N 40°39' W 074°07'0 0.0
2016-Jun-21 04:32N 40°39' W 074°07'0 0.0
2016-Jun-21 03:32N 40°39' W 074°07'0 0.0
2016-Jun-21 02:29N 40°39' W 074°07'0 0.0
2016-Jun-21 01:32N 40°39' W 074°07'0 0.0
2016-Jun-21 00:29N 40°39' W 074°07'0 0.0
2016-Jun-20 23:32N 40°39' W 074°07'0 0.0
2016-Jun-20 22:32N 40°39' W 074°07'0 0.0
2016-Jun-20 21:32N 40°39' W 074°07'0 0.0
2016-Jun-20 20:32N 40°39' W 074°07'0 0.0
2016-Jun-20 19:32N 40°39' W 074°07'0 0.0
2016-Jun-20 18:32N 40°39' W 074°07'0 0.0
2016-Jun-20 17:29N 40°39' W 074°07'0 0.0
2016-Jun-20 16:32N 40°39' W 074°07'0 0.0
2016-Jun-20 15:32N 40°39' W 074°07'0 0.0
2016-Jun-20 14:32N 40°39' W 074°07'0 0.0
2016-Jun-20 13:29N 40°39' W 074°07'0 0.0
2016-Jun-20 12:32N 40°39' W 074°07'0 0.0
2016-Jun-20 11:32N 40°39' W 074°07'0 0.0
2016-Jun-20 10:32N 40°39' W 074°07'0 0.0
2016-Jun-20 09:29N 40°39' W 074°07'0 0.0
2016-Jun-20 08:32N 40°39' W 074°07'0 0.0
2016-Jun-20 07:32N 40°39' W 074°07'0 0.0
2016-Jun-20 06:32N 40°39' W 074°07'0 0.0
2016-Jun-20 05:31N 40°39' W 074°07'0 0.0
2016-Jun-20 04:31N 40°39' W 074°07'0 0.0
2016-Jun-20 03:31N 40°39' W 074°07'0 0.0
2016-Jun-20 02:31N 40°39' W 074°07'0 0.0
2016-Jun-20 01:22N 40°39' W 074°07'0 0.0
2016-Jun-20 00:31N 40°39' W 074°07'0 0.4
2016-Jun-19 23:33N 40°39' W 074°06'5 4.7
2016-Jun-19 22:33N 40°35' W 074°02'17 6.8
2016-Jun-19 20:07N 40°30' W 073°42'2 0.1
2016-Jun-19 06:32N 40°30' W 073°40'0 0.1
2016-Jun-19 04:32N 40°30' W 073°40'0 0.0
2016-Jun-18 23:28N 40°30' W 073°40'0 0.0
2016-Jun-18 20:28N 40°30' W 073°40'0 0.0
2016-Jun-18 12:25N 40°30' W 073°40'0 0.1
2016-Jun-18 11:28N 40°30' W 073°40'0 0.1
2016-Jun-18 09:31N 40°30' W 073°40'0 0.1
2016-Jun-18 08:04N 40°30' W 073°40'0 0.1
2016-Jun-18 06:19N 40°30' W 073°40'0 0.0
2016-Jun-18 05:31N 40°30' W 073°40'0 0.0
2016-Jun-18 00:16N 40°30' W 073°40'0 0.1
2016-Jun-17 23:10N 40°30' W 073°40'0 0.1
2016-Jun-17 22:28N 40°30' W 073°40'0 0.0
2016-Jun-17 10:30N 40°30' W 073°40'0 0.0
2016-Jun-17 09:24N 40°30' W 073°40'0 0.0
2016-Jun-17 08:33N 40°30' W 073°40'0 0.0
2016-Jun-17 07:33N 40°30' W 073°40'0 0.0
2016-Jun-17 06:33N 40°30' W 073°40'0 0.0
2016-Jun-17 05:30N 40°30' W 073°40'0 0.1
2016-Jun-17 04:30N 40°30' W 073°40'  

Dump ship's entire track history